Time;durP1;ratioP1;P1;durP2;ratioP2;P2;SDS_P1;SDS_P2;PMS_P1;PMS_P2;Temp;Humidity;BMP_temperature;BMP_pressure;BME280_temperature;BME280_humidity;BME280_pressure;Samples;Min_cycle;Max_cycle;Signal;HPM_P1;HPM_P2
2023/11/13 00:01:53;;;;;;;13.10;9.43;;;4.40;99.90;;;;;;5139780;27;20549;-63
2023/11/13 00:04:20;;;;;;;12.60;9.47;;;4.50;99.90;;;;;;5139429;27;20465;-63
2023/11/13 00:06:49;;;;;;;14.27;9.03;;;4.50;99.90;;;;;;5139423;27;20799;-63
2023/11/13 00:09:17;;;;;;;12.23;9.73;;;4.50;99.90;;;;;;5139367;27;20494;-63
2023/11/13 00:11:44;;;;;;;14.70;9.33;;;4.50;99.90;;;;;;5139749;27;20485;-63
2023/11/13 00:14:11;;;;;;;13.00;9.03;;;4.60;99.90;;;;;;5138877;27;20507;-63
2023/11/13 00:16:38;;;;;;;11.37;8.17;;;4.50;99.90;;;;;;5138893;27;20916;-63
2023/11/13 00:19:06;;;;;;;13.03;8.60;;;4.50;99.90;;;;;;5139229;27;20557;-63
2023/11/13 00:21:34;;;;;;;14.20;9.00;;;4.50;99.90;;;;;;5139181;27;20462;-63
2023/11/13 00:24:03;;;;;;;15.30;9.03;;;4.50;99.90;;;;;;5138962;27;20459;-63
2023/11/13 00:26:31;;;;;;;10.97;8.90;;;4.50;99.90;;;;;;5139116;27;20490;-63
2023/11/13 00:28:58;;;;;;;13.07;8.70;;;4.50;99.90;;;;;;5138792;27;20455;-63
2023/11/13 00:31:27;;;;;;;11.57;9.77;;;4.50;99.90;;;;;;5138385;27;20546;-63
2023/11/13 00:33:54;;;;;;;11.80;8.57;;;4.50;99.90;;;;;;5138105;27;20512;-63
2023/11/13 00:36:21;;;;;;;13.10;8.33;;;4.50;99.90;;;;;;5138148;27;20450;-63
2023/11/13 00:38:48;;;;;;;11.17;8.00;;;4.60;99.90;;;;;;5138453;27;20966;-63
2023/11/13 00:41:18;;;;;;;13.17;9.60;;;4.60;99.90;;;;;;5139105;27;20430;-63
2023/11/13 00:43:45;;;;;;;12.30;8.70;;;4.70;99.90;;;;;;5138846;27;20454;-63
2023/11/13 00:46:14;;;;;;;11.97;8.33;;;4.80;99.90;;;;;;5138789;27;20934;-63
2023/11/13 00:48:41;;;;;;;12.73;8.90;;;4.80;99.90;;;;;;5138401;27;20434;-63
2023/11/13 00:51:09;;;;;;;14.87;8.67;;;4.80;99.90;;;;;;5138665;27;20855;-63
2023/11/13 00:53:37;;;;;;;12.43;8.63;;;4.80;99.90;;;;;;5139083;27;20481;-63
2023/11/13 00:56:05;;;;;;;11.23;8.27;;;4.80;99.90;;;;;;5137885;27;20458;-63
2023/11/13 00:58:35;;;;;;;12.30;8.30;;;4.90;99.90;;;;;;5138266;27;20461;-64
2023/11/13 01:01:05;;;;;;;11.00;8.53;;;4.90;99.90;;;;;;5137989;27;20831;-63
2023/11/13 01:03:33;;;;;;;10.90;7.70;;;5.00;99.90;;;;;;5138035;27;20461;-63
2023/11/13 01:06:00;;;;;;;9.97;7.40;;;4.90;99.90;;;;;;5138127;27;20477;-64
2023/11/13 01:08:28;;;;;;;12.43;8.50;;;4.90;99.90;;;;;;5138322;27;20898;-63
2023/11/13 01:10:55;;;;;;;12.20;7.80;;;4.90;99.90;;;;;;5138732;27;20458;-63
2023/11/13 01:13:22;;;;;;;12.03;7.47;;;5.00;99.90;;;;;;5138729;27;20490;-64
2023/11/13 01:15:52;;;;;;;14.90;7.77;;;5.00;99.90;;;;;;5138679;27;20450;-63
2023/11/13 01:18:19;;;;;;;10.73;7.23;;;5.00;70.20;;;;;;5138142;27;20459;-64
2023/11/13 01:20:47;;;;;;;7.70;6.77;;;5.00;24.60;;;;;;5138500;27;20455;-63
2023/11/13 01:23:14;;;;;;;10.07;7.67;;;5.10;1.00;;;;;;5138492;27;20499;-63
2023/11/13 01:25:42;;;;;;;10.03;7.47;;;5.10;1.00;;;;;;5138267;28;20545;-63
2023/11/13 01:28:09;;;;;;;9.17;8.17;;;5.10;1.00;;;;;;5137950;28;20581;-64
2023/11/13 01:30:37;;;;;;;10.87;8.10;;;5.10;1.00;;;;;;5136988;28;20472;-63
2023/11/13 01:33:06;;;;;;;11.70;7.83;;;5.00;1.00;;;;;;5138067;28;20454;-63
2023/11/13 01:35:33;;;;;;;8.93;7.10;;;5.00;1.00;;;;;;5137504;28;20515;-64
2023/11/13 01:38:00;;;;;;;8.83;7.50;;;5.10;1.00;;;;;;5137644;28;20927;-63
2023/11/13 01:40:28;;;;;;;9.23;7.60;;;5.00;1.00;;;;;;5138228;28;20554;-63
2023/11/13 01:42:55;;;;;;;10.13;6.60;;;5.00;1.00;;;;;;5138007;28;20943;-63
2023/11/13 01:45:22;;;;;;;13.67;7.00;;;5.00;1.00;;;;;;5138051;27;20465;-63
2023/11/13 01:47:50;;;;;;;8.87;7.63;;;5.00;1.00;;;;;;5142227;27;20479;-63
2023/11/13 01:50:19;;;;;;;9.10;6.73;;;5.10;1.00;;;;;;5142265;27;20494;-64
2023/11/13 01:52:46;;;;;;;13.10;8.43;;;5.10;1.00;;;;;;5142414;27;20455;-63
2023/11/13 01:55:13;;;;;;;12.90;7.60;;;5.10;1.00;;;;;;5142020;27;20465;-63
2023/11/13 01:57:43;;;;;;;10.20;6.47;;;5.10;1.00;;;;;;5142626;27;20794;-63
2023/11/13 02:00:11;;;;;;;8.97;7.30;;;5.10;1.00;;;;;;5141759;27;20538;-63
2023/11/13 02:02:39;;;;;;;9.60;7.00;;;5.20;1.00;;;;;;5141784;27;20429;-64
2023/11/13 02:05:06;;;;;;;10.43;7.70;;;5.20;1.00;;;;;;5141458;27;20938;-63
2023/11/13 02:07:36;;;;;;;10.90;7.33;;;5.20;1.00;;;;;;5142033;27;20752;-63
2023/11/13 02:10:04;;;;;;;11.00;7.60;;;5.20;1.00;;;;;;5141352;27;20458;-63
2023/11/13 02:12:34;;;;;;;11.77;7.40;;;5.20;1.00;;;;;;5141818;27;20459;-63
2023/11/13 02:15:03;;;;;;;11.30;7.60;;;5.30;1.00;;;;;;5141487;27;20462;-64
2023/11/13 02:17:30;;;;;;;8.10;6.90;;;5.30;1.00;;;;;;5141718;27;20753;-64
2023/11/13 02:19:58;;;;;;;8.50;7.60;;;5.30;1.00;;;;;;5141313;27;20740;-64
2023/11/13 02:22:25;;;;;;;10.70;7.27;;;5.40;1.00;;;;;;5141643;27;20756;-64
2023/11/13 02:24:54;;;;;;;14.47;7.07;;;5.40;1.00;;;;;;5141390;27;20450;-64
2023/11/13 02:27:23;;;;;;;8.50;7.10;;;5.30;1.00;;;;;;5141615;27;20493;-64
2023/11/13 02:29:50;;;;;;;9.60;6.47;;;5.30;1.00;;;;;;5141455;27;20449;-64
2023/11/13 02:32:18;;;;;;;9.87;6.60;;;5.30;1.00;;;;;;5141262;27;20833;-63
2023/11/13 02:34:45;;;;;;;10.03;6.93;;;5.40;1.00;;;;;;5140352;27;20507;-63
2023/11/13 02:37:13;;;;;;;9.10;6.83;;;5.40;1.00;;;;;;5141466;27;20752;-64
2023/11/13 02:39:40;;;;;;;9.57;7.43;;;5.40;1.00;;;;;;5140587;27;20478;-62
2023/11/13 02:42:08;;;;;;;11.30;7.60;;;5.50;1.00;;;;;;5141212;27;20455;-63
2023/11/13 02:44:36;;;;;;;11.90;7.07;;;5.50;1.00;;;;;;5140795;27;20457;-63
2023/11/13 02:47:03;;;;;;;9.80;7.77;;;5.60;1.00;;;;;;5141497;27;20486;-63
2023/11/13 02:49:31;;;;;;;9.43;7.30;;;5.60;1.00;;;;;;5140941;27;20523;-63
2023/11/13 02:51:59;;;;;;;11.40;7.83;;;5.60;99.90;;;;;;5140815;27;20808;-63
2023/11/13 02:54:26;;;;;;;10.00;7.63;;;5.70;99.90;;;;;;5140919;27;20887;-63
2023/11/13 02:56:53;;;;;;;10.37;8.50;;;5.60;99.90;;;;;;5140694;27;20429;-63
2023/11/13 02:59:21;;;;;;;8.57;6.80;;;5.60;99.90;;;;;;5140210;27;20450;-63
2023/11/13 03:01:49;;;;;;;10.77;7.70;;;5.70;99.90;;;;;;5140934;27;20823;-63
2023/11/13 03:04:16;;;;;;;10.93;7.20;;;5.70;99.90;;;;;;5140896;27;20868;-63
2023/11/13 03:06:43;;;;;;;9.30;7.20;;;5.70;99.90;;;;;;5139473;27;20458;-63
2023/11/13 03:09:11;;;;;;;8.47;7.43;;;5.70;99.90;;;;;;5140569;27;20455;-64
2023/11/13 03:11:38;;;;;;;8.03;7.07;;;5.80;99.90;;;;;;5139939;27;20509;-64
2023/11/13 03:14:05;;;;;;;11.60;7.10;;;5.80;99.90;;;;;;5140371;27;20900;-63
2023/11/13 03:16:34;;;;;;;9.40;7.43;;;5.90;99.90;;;;;;5140469;27;20455;-63
2023/11/13 03:19:02;;;;;;;9.17;6.47;;;5.90;99.90;;;;;;5140486;27;20512;-64
2023/11/13 03:21:29;;;;;;;9.93;7.37;;;5.90;99.90;;;;;;5140397;27;20433;-63
2023/11/13 03:23:57;;;;;;;8.70;6.90;;;5.90;99.90;;;;;;5139831;27;20454;-64
2023/11/13 03:26:28;;;;;;;8.53;6.77;;;6.00;99.90;;;;;;5140205;27;20827;-64
2023/11/13 03:28:55;;;;;;;11.10;7.80;;;6.00;99.90;;;;;;5140182;27;20490;-64
2023/11/13 03:31:22;;;;;;;8.63;7.40;;;6.00;99.90;;;;;;5140681;27;20549;-63
2023/11/13 03:33:53;;;;;;;11.07;8.10;;;6.10;99.90;;;;;;5140468;27;20548;-64
2023/11/13 03:36:20;;;;;;;11.87;7.27;;;6.10;99.90;;;;;;5140108;27;20436;-64
2023/11/13 03:38:48;;;;;;;9.67;7.40;;;6.10;99.90;;;;;;5139851;27;20488;-63
2023/11/13 03:41:16;;;;;;;9.53;6.60;;;6.10;99.90;;;;;;5140129;27;20454;-63
2023/11/13 03:43:43;;;;;;;9.83;7.00;;;6.10;99.90;;;;;;5139886;27;20476;-64
2023/11/13 03:46:10;;;;;;;12.40;7.80;;;6.10;99.90;;;;;;5140140;27;20498;-63
2023/11/13 03:48:37;;;;;;;10.57;6.93;;;6.20;99.90;;;;;;5140054;27;20529;-65
2023/11/13 03:51:07;;;;;;;8.87;7.23;;;6.20;99.90;;;;;;5139895;27;20425;-64
2023/11/13 03:53:34;;;;;;;9.43;7.93;;;6.20;99.90;;;;;;5139807;27;20432;-64
2023/11/13 03:56:01;;;;;;;8.37;7.40;;;6.20;99.90;;;;;;5139778;27;20512;-64
2023/11/13 03:58:29;;;;;;;11.40;7.87;;;6.20;99.90;;;;;;5139702;27;20756;-64
2023/11/13 04:00:56;;;;;;;7.93;7.00;;;6.20;99.90;;;;;;5139238;27;20907;-64
2023/11/13 04:03:23;;;;;;;9.83;7.10;;;6.20;99.90;;;;;;5139713;27;20481;-63
2023/11/13 04:05:50;;;;;;;8.70;7.60;;;6.20;99.90;;;;;;5139386;27;20455;-63
2023/11/13 04:08:18;;;;;;;9.77;7.13;;;6.30;99.90;;;;;;5139449;27;20508;-63
2023/11/13 04:10:48;;;;;;;9.10;7.30;;;6.30;99.90;;;;;;5139072;27;20549;-63
2023/11/13 04:13:16;;;;;;;9.50;8.07;;;6.30;99.90;;;;;;5139168;27;20789;-64
2023/11/13 04:15:44;;;;;;;9.83;7.90;;;6.30;99.90;;;;;;5139045;27;20465;-64
2023/11/13 04:18:11;;;;;;;11.40;7.40;;;6.30;99.90;;;;;;5139234;27;20461;-63
2023/11/13 04:20:39;;;;;;;9.80;8.30;;;6.30;1.00;;;;;;5139387;27;20465;-65
2023/11/13 04:23:07;;;;;;;10.60;8.10;;;6.40;31.40;;;;;;5138405;27;20537;-63
2023/11/13 04:25:35;;;;;;;10.47;7.40;;;6.40;99.90;;;;;;5138964;27;20425;-59
2023/11/13 04:28:03;;;;;;;13.03;9.03;;;6.30;1.00;;;;;;5139194;27;20796;-59
2023/11/13 04:30:30;;;;;;;10.43;8.00;;;6.30;10.50;;;;;;5138972;27;20439;-59
2023/11/13 04:32:57;;;;;;;12.17;8.40;;;6.30;99.90;;;;;;5138472;27;20455;-59
2023/11/13 04:35:24;;;;;;;9.33;7.47;;;6.30;99.90;;;;;;5138680;27;20433;-60
2023/11/13 04:37:51;;;;;;;12.53;7.37;;;6.30;99.90;;;;;;5138833;27;20784;-60
2023/11/13 04:40:18;;;;;;;9.73;7.73;;;6.30;99.90;;;;;;5138929;27;20450;-60
2023/11/13 04:42:47;;;;;;;8.53;6.93;;;6.40;99.90;;;;;;5138958;27;20523;-60
2023/11/13 04:45:14;;;;;;;8.10;7.30;;;6.30;99.90;;;;;;5139146;27;20432;-60
2023/11/13 04:47:41;;;;;;;9.30;7.63;;;6.30;99.90;;;;;;5138406;27;20491;-60
2023/11/13 04:50:09;;;;;;;8.07;6.50;;;6.30;99.90;;;;;;5138979;27;20553;-60
2023/11/13 04:52:36;;;;;;;7.27;6.33;;;6.40;99.90;;;;;;5138676;27;20473;-60
2023/11/13 04:55:04;;;;;;;8.43;6.47;;;6.30;99.90;;;;;;5138465;27;20458;-60
2023/11/13 04:57:31;;;;;;;6.67;5.83;;;6.30;99.90;;;;;;5138322;27;20446;-59
2023/11/13 04:59:59;;;;;;;7.87;6.07;;;6.40;99.90;;;;;;5138470;27;20469;-60
2023/11/13 05:02:27;;;;;;;8.07;6.47;;;6.40;99.90;;;;;;5138653;27;20465;-60
2023/11/13 05:04:54;;;;;;;7.20;5.90;;;6.40;99.90;;;;;;5138363;27;20455;-60
2023/11/13 05:07:21;;;;;;;6.17;5.37;;;6.40;99.90;;;;;;5138431;27;20458;-60
2023/11/13 05:09:48;;;;;;;8.20;6.67;;;6.40;99.90;;;;;;5138517;27;20485;-60
2023/11/13 05:12:16;;;;;;;6.63;4.90;;;6.40;99.90;;;;;;5137233;27;20455;-59
2023/11/13 05:14:43;;;;;;;6.07;5.20;;;6.40;99.90;;;;;;5138342;27;20511;-60
2023/11/13 05:17:12;;;;;;;6.13;4.83;;;6.50;99.90;;;;;;5137910;27;20436;-60
2023/11/13 05:19:39;;;;;;;6.63;5.40;;;6.50;99.90;;;;;;5138473;27;20458;-59
2023/11/13 05:22:06;;;;;;;6.13;4.73;;;6.50;99.90;;;;;;5137820;27;20762;-60
2023/11/13 05:24:33;;;;;;;8.57;5.40;;;6.50;99.90;;;;;;5138542;27;20483;-60
2023/11/13 05:27:00;;;;;;;6.30;5.20;;;6.50;99.90;;;;;;5137985;28;20454;-60
2023/11/13 05:29:28;;;;;;;6.17;4.30;;;6.50;99.90;;;;;;5137830;28;20490;-59
2023/11/13 05:31:56;;;;;;;6.07;5.30;;;6.50;99.90;;;;;;5137592;28;20838;-59
2023/11/13 05:34:25;;;;;;;4.93;4.30;;;6.60;99.90;;;;;;5138138;28;20458;-60
2023/11/13 05:36:53;;;;;;;4.93;4.13;;;6.50;99.90;;;;;;5138024;28;20947;-61
2023/11/13 05:39:21;;;;;;;8.33;4.30;;;6.60;99.90;;;;;;5137802;28;20911;-59
2023/11/13 05:41:48;;;;;;;4.53;4.03;;;6.60;99.90;;;;;;5138126;28;20466;-60
2023/11/13 05:44:16;;;;;;;5.43;4.47;;;6.60;99.90;;;;;;5138420;28;20481;-61
2023/11/13 05:46:43;;;;;;;6.10;5.13;;;6.60;99.90;;;;;;5138102;28;20455;-60
2023/11/13 05:49:12;;;;;;;5.70;4.63;;;6.60;99.90;;;;;;5137706;28;20486;-61
2023/11/13 05:51:41;;;;;;;5.67;4.80;;;6.70;99.90;;;;;;5137751;28;20461;-61
2023/11/13 05:54:08;;;;;;;6.50;5.43;;;6.70;99.90;;;;;;5138107;28;20498;-61
2023/11/13 05:56:35;;;;;;;7.47;5.77;;;6.70;99.90;;;;;;5137878;28;20724;-61
2023/11/13 05:59:03;;;;;;;5.70;5.10;;;6.80;99.90;;;;;;5137927;28;20568;-60
2023/11/13 06:01:31;;;;;;;7.20;5.70;;;6.80;99.90;;;;;;5137702;28;20542;-62
2023/11/13 06:03:58;;;;;;;9.90;6.03;;;6.80;99.90;;;;;;5137966;28;20574;-61
2023/11/13 06:06:26;;;;;;;6.77;5.97;;;6.90;99.90;;;;;;5137937;28;20914;-60
2023/11/13 06:08:55;;;;;;;8.93;5.70;;;6.90;99.90;;;;;;5137520;28;20491;-62
2023/11/13 06:11:23;;;;;;;6.57;5.63;;;6.90;99.90;;;;;;5138024;28;20454;-61
2023/11/13 06:13:50;;;;;;;8.20;5.40;;;6.90;99.90;;;;;;5137896;28;20465;-61
2023/11/13 06:16:18;;;;;;;9.90;5.50;;;6.90;99.90;;;;;;5136921;28;20497;-61
2023/11/13 06:18:50;;;;;;;6.30;5.70;;;7.00;99.90;;;;;;5137293;28;20838;-61
2023/11/13 06:21:17;;;;;;;7.63;6.10;;;7.00;99.90;;;;;;5137787;28;20458;-60
2023/11/13 06:23:44;;;;;;;10.23;7.47;;;7.10;99.90;;;;;;5136371;28;20454;-61
2023/11/13 06:26:13;;;;;;;7.67;6.30;;;7.00;99.90;;;;;;5137526;28;20557;-60
2023/11/13 06:28:41;;;;;;;7.37;6.33;;;7.10;99.90;;;;;;5137194;28;20841;-60
2023/11/13 06:31:11;;;;;;;7.10;6.37;;;7.10;99.90;;;;;;5137385;28;20482;-61
2023/11/13 06:33:39;;;;;;;11.63;7.10;;;7.20;99.90;;;;;;5138975;27;20455;-61
2023/11/13 06:36:08;;;;;;;8.03;6.33;;;7.30;99.90;;;;;;5139780;27;20501;-61
2023/11/13 06:38:36;;;;;;;9.73;7.80;;;7.40;99.90;;;;;;5139823;27;20531;-61
2023/11/13 06:41:04;;;;;;;8.97;7.60;;;7.40;99.90;;;;;;5140661;27;20461;-65
2023/11/13 06:43:32;;;;;;;8.43;7.17;;;7.30;99.90;;;;;;5140993;27;20762;-65
2023/11/13 06:46:00;;;;;;;7.00;6.20;;;7.30;99.90;;;;;;5140045;27;20458;-66
2023/11/13 06:48:27;;;;;;;8.00;6.90;;;7.30;99.90;;;;;;5140469;27;20585;-65
2023/11/13 06:50:54;;;;;;;10.43;6.73;;;7.30;99.90;;;;;;5140994;27;20458;-65
2023/11/13 06:53:22;;;;;;;9.03;6.97;;;7.30;99.90;;;;;;5141038;27;20887;-65
2023/11/13 06:55:49;;;;;;;15.97;7.87;;;7.40;99.90;;;;;;5140246;27;20459;-65
2023/11/13 06:58:16;;;;;;;33.13;9.33;;;7.50;99.90;;;;;;5140631;27;20462;-65
2023/11/13 07:00:45;;;;;;;18.80;8.57;;;7.60;99.90;;;;;;5140765;27;20505;-64
2023/11/13 07:03:13;;;;;;;12.33;8.60;;;7.60;99.90;;;;;;5140351;27;20919;-64
2023/11/13 07:05:41;;;;;;;14.63;8.90;;;7.70;99.90;;;;;;5140576;27;20488;-62
2023/11/13 07:08:09;;;;;;;12.87;9.33;;;7.80;99.90;;;;;;5140840;27;20489;-62
2023/11/13 07:10:38;;;;;;;19.90;8.53;;;7.80;99.90;;;;;;5140864;27;20458;-62
2023/11/13 07:13:10;;;;;;;17.30;9.50;;;7.80;99.90;;;;;;5140013;27;20458;-63
2023/11/13 07:15:37;;;;;;;11.80;8.10;;;7.90;99.90;;;;;;5140464;27;20457;-63
2023/11/13 07:18:06;;;;;;;17.47;9.20;;;8.00;99.90;;;;;;5140195;27;20458;-62
2023/11/13 07:20:34;;;;;;;14.50;8.70;;;8.10;99.90;;;;;;5140277;27;20454;-63
2023/11/13 07:23:02;;;;;;;12.60;9.27;;;8.20;99.90;;;;;;5139836;27;20462;-63
2023/11/13 07:25:30;;;;;;;14.27;8.93;;;8.20;99.90;;;;;;5140186;27;20458;-64
2023/11/13 07:27:57;;;;;;;13.10;8.90;;;8.20;99.90;;;;;;5140331;27;20488;-64
2023/11/13 07:30:26;;;;;;;13.13;8.87;;;8.30;99.90;;;;;;5138882;27;20454;-64
2023/11/13 07:32:53;;;;;;;13.70;9.20;;;8.40;99.90;;;;;;5137944;27;20549;-65
2023/11/13 07:35:22;;;;;;;16.17;9.33;;;8.40;99.90;;;;;;5138184;27;20557;-64
2023/11/13 07:37:49;;;;;;;13.37;8.90;;;8.40;99.90;;;;;;5138231;27;20504;-65
2023/11/13 07:40:18;;;;;;;13.23;8.67;;;8.50;99.90;;;;;;5138142;27;20511;-65
2023/11/13 07:42:45;;;;;;;18.63;8.17;;;8.50;99.90;;;;;;5140018;27;20809;-65
2023/11/13 07:45:13;;;;;;;15.23;7.70;;;8.60;99.90;;;;;;5138853;27;20558;-67
2023/11/13 07:47:40;;;;;;;12.23;7.70;;;8.60;99.90;;;;;;5139906;27;20751;-66
2023/11/13 07:50:11;;;;;;;12.10;7.40;;;8.60;99.90;;;;;;5139727;27;20498;-66
2023/11/13 07:52:43;;;;;;;14.80;6.53;;;8.70;99.90;;;;;;5140305;27;20458;-66
2023/11/13 07:55:12;;;;;;;12.30;7.13;;;8.70;99.90;;;;;;5139922;27;20898;-66
2023/11/13 07:57:39;;;;;;;11.17;6.33;;;8.70;99.90;;;;;;5140090;27;20482;-65
2023/11/13 08:00:09;;;;;;;14.13;6.47;;;8.70;99.90;;;;;;5139601;27;20474;-64
2023/11/13 08:02:40;;;;;;;10.47;6.63;;;8.80;99.90;;;;;;5139656;27;20463;-64
2023/11/13 08:05:10;;;;;;;9.20;6.50;;;8.80;99.90;;;;;;5139179;27;20459;-65
2023/11/13 08:07:39;;;;;;;13.80;7.10;;;8.80;99.90;;;;;;5139654;27;20459;-64
2023/11/13 08:10:12;;;;;;;13.00;7.10;;;8.90;99.90;;;;;;5139396;27;20530;-64
2023/11/13 08:12:42;;;;;;;10.90;6.07;;;8.90;99.90;;;;;;5140080;27;20947;-64
2023/11/13 08:15:12;;;;;;;12.17;6.23;;;8.90;99.90;;;;;;5139121;27;20455;-64
2023/11/13 08:17:42;;;;;;;9.10;5.67;;;8.90;99.90;;;;;;5139626;27;20512;-64
2023/11/13 08:20:13;;;;;;;13.93;5.40;;;9.00;99.90;;;;;;5138860;27;20454;-64
2023/11/13 08:22:41;;;;;;;13.70;5.40;;;9.00;99.90;;;;;;5138749;27;20465;-64
2023/11/13 08:25:12;;;;;;;9.53;5.43;;;9.00;99.90;;;;;;5138875;27;20454;-64
2023/11/13 08:27:41;;;;;;;8.93;5.97;;;9.10;99.90;;;;;;5139278;27;20462;-64
2023/11/13 08:30:09;;;;;;;9.63;5.00;;;9.10;99.90;;;;;;5139254;27;20499;-64
2023/11/13 08:32:37;;;;;;;7.93;4.23;;;9.10;99.90;;;;;;5139051;27;20828;-64
2023/11/13 08:35:05;;;;;;;9.60;5.00;;;9.10;99.90;;;;;;5138717;27;20465;-64
2023/11/13 08:37:33;;;;;;;7.83;5.00;;;9.10;99.90;;;;;;5138210;27;20784;-65
2023/11/13 08:40:01;;;;;;;6.97;4.40;;;9.10;99.90;;;;;;5138942;27;20455;-64
2023/11/13 08:42:30;;;;;;;7.10;5.17;;;9.10;99.90;;;;;;5138805;27;20875;-65
2023/11/13 08:45:00;;;;;;;12.47;5.00;;;9.00;99.90;;;;;;5138721;27;20838;-64
2023/11/13 08:47:27;;;;;;;9.53;4.53;;;9.10;99.90;;;;;;5138964;27;20921;-64
2023/11/13 08:49:57;;;;;;;8.13;4.40;;;9.00;99.90;;;;;;5137911;27;20831;-64
2023/11/13 08:52:25;;;;;;;6.20;3.80;;;9.00;99.90;;;;;;5138973;27;20731;-64
2023/11/13 08:54:52;;;;;;;8.23;4.23;;;9.10;99.90;;;;;;5136906;27;20454;-64
2023/11/13 08:57:23;;;;;;;9.07;4.40;;;9.10;99.90;;;;;;5138101;27;20455;-64
2023/11/13 08:59:52;;;;;;;5.17;4.10;;;9.10;99.90;;;;;;5138350;27;20455;-63
2023/11/13 09:02:25;;;;;;;11.33;4.33;;;9.10;99.90;;;;;;5138836;27;20503;-63
2023/11/13 09:04:53;;;;;;;11.00;5.40;;;9.10;99.90;;;;;;5137942;27;20429;-64
2023/11/13 09:07:20;;;;;;;9.87;4.57;;;9.10;99.90;;;;;;5138171;27;20494;-65
2023/11/13 09:09:54;;;;;;;7.10;4.33;;;9.20;99.90;;;;;;5138488;27;20541;-64
2023/11/13 09:12:22;;;;;;;4.30;3.10;;;9.10;99.90;;;;;;5138590;27;20553;-63
2023/11/13 09:14:51;;;;;;;6.73;4.00;;;9.20;99.90;;;;;;5138519;27;20763;-65
2023/11/13 09:17:18;;;;;;;8.70;4.60;;;9.20;99.90;;;;;;5138426;27;20463;-65
2023/11/13 09:19:48;;;;;;;6.70;4.17;;;9.20;99.90;;;;;;5138202;27;20550;-64
2023/11/13 09:22:18;;;;;;;9.70;3.00;;;9.10;99.90;;;;;;5135242;27;20471;-63
2023/11/13 09:24:45;;;;;;;3.80;2.90;;;9.20;99.90;;;;;;5138492;27;20830;-65
2023/11/13 09:27:14;;;;;;;6.20;5.03;;;9.20;99.90;;;;;;5136588;27;20457;-64
2023/11/13 09:29:43;;;;;;;8.20;3.57;;;9.10;99.90;;;;;;5136210;28;20493;-64
2023/11/13 09:32:14;;;;;;;7.20;2.83;;;9.10;99.90;;;;;;5137386;28;20763;-63
2023/11/13 09:34:42;;;;;;;5.83;3.13;;;9.20;99.90;;;;;;5138116;28;20554;-64
2023/11/13 09:37:10;;;;;;;6.37;3.07;;;9.20;99.90;;;;;;5138021;28;20466;-63
2023/11/13 09:39:42;;;;;;;5.20;3.00;;;9.20;99.90;;;;;;5137902;28;20931;-63
2023/11/13 09:42:16;;;;;;;9.17;3.27;;;9.20;99.90;;;;;;5138535;28;20458;-64
2023/11/13 09:44:44;;;;;;;7.43;3.03;;;9.20;99.90;;;;;;5136716;28;20767;-64
2023/11/13 09:47:17;;;;;;;4.97;2.90;;;9.20;99.90;;;;;;5137070;28;20466;-65
2023/11/13 09:49:48;;;;;;;5.87;2.80;;;9.30;99.90;;;;;;5137034;28;20931;-66
2023/11/13 09:52:18;;;;;;;5.00;2.53;;;9.30;99.90;;;;;;5137507;28;20461;-65
2023/11/13 09:54:46;;;;;;;4.47;2.60;;;9.20;99.90;;;;;;5137137;28;20765;-64
2023/11/13 09:57:14;;;;;;;6.33;3.00;;;9.20;99.90;;;;;;5137059;28;20488;-63
2023/11/13 09:59:46;;;;;;;5.23;2.57;;;9.20;99.90;;;;;;5137781;28;20450;-65
2023/11/13 10:02:16;;;;;;;5.27;2.33;;;9.20;99.90;;;;;;5137835;28;20545;-64
2023/11/13 10:04:44;;;;;;;7.00;2.73;;;9.20;99.90;;;;;;5136377;28;20484;-64
2023/11/13 10:07:15;;;;;;;3.87;2.27;;;9.20;99.90;;;;;;5136908;27;20451;-65
2023/11/13 10:09:43;;;;;;;3.20;1.97;;;9.20;99.90;;;;;;5139946;27;20510;-64
2023/11/13 10:12:10;;;;;;;3.43;2.37;;;9.20;99.90;;;;;;5139116;27;20913;-67
2023/11/13 10:14:38;;;;;;;2.93;1.80;;;9.20;99.90;;;;;;5141778;27;20882;-65
2023/11/13 10:17:05;;;;;;;3.40;2.30;;;9.20;99.90;;;;;;5141383;27;20433;-63
2023/11/13 10:19:35;;;;;;;5.27;2.40;;;9.20;99.90;;;;;;5123407;27;20825;-63
2023/11/13 10:22:03;;;;;;;2.70;1.87;;;9.30;99.90;;;;;;5141188;27;20961;-63
2023/11/13 10:24:30;;;;;;;3.57;2.10;;;9.30;99.90;;;;;;5141875;27;20462;-63
2023/11/13 10:26:59;;;;;;;3.23;1.77;;;9.30;99.90;;;;;;5141609;27;20458;-62
2023/11/13 10:29:30;;;;;;;3.63;2.17;;;9.30;99.90;;;;;;5141147;27;20459;-63
2023/11/13 10:31:58;;;;;;;3.40;2.23;;;9.30;99.90;;;;;;5141368;27;20757;-63
2023/11/13 10:34:43;;;;;;;2.57;1.73;;;9.30;99.90;;;;;;5141438;27;20731;-63
2023/11/13 10:37:11;;;;;;;3.10;1.67;;;9.30;99.90;;;;;;5141287;27;20458;-62
2023/11/13 10:39:42;;;;;;;3.23;2.20;;;9.40;99.90;;;;;;5141017;27;20533;-63
2023/11/13 10:42:18;;;;;;;10.40;3.63;;;9.40;99.90;;;;;;5141514;27;20458;-63
2023/11/13 10:44:45;;;;;;;4.63;2.23;;;9.40;99.90;;;;;;5141582;27;20458;-64
2023/11/13 10:47:23;;;;;;;2.80;2.03;;;9.50;99.90;;;;;;5141074;27;20461;-63
2023/11/13 10:49:54;;;;;;;2.60;2.10;;;9.50;99.90;;;;;;5141084;27;20493;-64
2023/11/13 10:52:22;;;;;;;3.20;2.17;;;9.50;99.90;;;;;;5141360;27;20459;-64
2023/11/13 10:54:53;;;;;;;5.50;2.80;;;9.60;99.90;;;;;;5140999;27;20459;-64
2023/11/13 10:57:25;;;;;;;3.33;2.70;;;9.60;99.90;;;;;;5140931;27;20459;-63
2023/11/13 10:59:53;;;;;;;4.37;3.20;;;9.70;99.90;;;;;;5140817;27;20462;-62
2023/11/13 11:02:27;;;;;;;6.87;3.20;;;9.80;99.90;;;;;;5141150;27;20718;-63
2023/11/13 11:04:57;;;;;;;8.40;2.83;;;9.90;99.90;;;;;;5140987;27;20437;-61
2023/11/13 11:07:28;;;;;;;4.70;2.70;;;9.90;99.90;;;;;;5140843;27;20454;-62
2023/11/13 11:10:00;;;;;;;7.40;2.73;;;9.90;99.90;;;;;;5140112;27;20542;-62
2023/11/13 11:12:32;;;;;;;5.13;3.50;;;10.00;99.90;;;;;;5140995;27;20932;-63
2023/11/13 11:15:14;;;;;;;7.20;3.73;;;10.10;99.90;;;;;;5140178;27;20486;-62
2023/11/13 11:17:47;;;;;;;6.23;2.80;;;10.20;99.90;;;;;;5140654;27;20553;-63
2023/11/13 11:20:23;;;;;;;4.43;3.00;;;10.20;99.90;;;;;;5139784;27;20785;-64
2023/11/13 11:22:55;;;;;;;6.00;3.50;;;10.30;99.90;;;;;;5140618;27;20454;-65
2023/11/13 11:25:44;;;;;;;5.47;3.53;;;10.50;99.90;;;;;;5140047;27;20458;-65
2023/11/13 11:28:43;;;;;;;4.47;2.43;;;10.70;99.90;;;;;;5140819;27;20465;-63
2023/11/13 11:31:47;;;;;;;5.43;2.50;;;10.80;99.90;;;;;;5139038;27;20471;-64
2023/11/13 11:34:23;;;;;;;4.47;3.13;;;10.80;99.90;;;;;;5140357;27;20548;-65
2023/11/13 11:37:02;;;;;;;4.43;3.10;;;10.80;99.90;;;;;;5140502;27;20454;-65
2023/11/13 11:39:30;;;;;;;4.90;2.40;;;10.70;99.90;;;;;;5139680;27;20502;-67
2023/11/13 11:41:57;;;;;;;5.13;2.70;;;10.70;99.90;;;;;;5140005;27;20462;-67
2023/11/13 11:44:28;;;;;;;3.93;2.67;;;10.70;99.90;;;;;;5139972;27;20496;-66
2023/11/13 11:46:58;;;;;;;4.77;3.13;;;10.70;99.90;;;;;;5139801;27;20541;-67
2023/11/13 11:49:27;;;;;;;6.87;2.60;;;10.70;99.90;;;;;;5139390;27;20459;-65
2023/11/13 11:52:00;;;;;;;4.10;2.27;;;10.70;99.90;;;;;;5138211;27;20561;-62
2023/11/13 11:54:30;;;;;;;4.80;3.03;;;10.70;99.90;;;;;;5139074;27;20460;-64
2023/11/13 11:56:59;;;;;;;5.37;2.87;;;10.80;99.90;;;;;;5138418;27;20876;-60
2023/11/13 11:59:28;;;;;;;5.17;2.90;;;10.80;99.90;;;;;;5137637;27;20439;-62
2023/11/13 12:01:57;;;;;;;4.60;2.70;;;10.80;99.90;;;;;;5137918;27;20458;-59
2023/11/13 12:04:24;;;;;;;4.40;2.63;;;10.80;99.90;;;;;;5136552;27;20458;-63
2023/11/13 12:06:57;;;;;;;4.70;2.23;;;10.80;99.90;;;;;;5137965;27;20557;-63
2023/11/13 12:09:25;;;;;;;5.17;2.77;;;10.90;99.90;;;;;;5138098;27;20470;-62
2023/11/13 12:11:53;;;;;;;5.93;2.77;;;10.90;99.90;;;;;;5138337;27;20455;-63
2023/11/13 12:14:21;;;;;;;3.60;2.07;;;11.00;99.90;;;;;;5139156;27;20548;-62
2023/11/13 12:16:49;;;;;;;3.73;2.40;;;11.00;99.90;;;;;;5138935;27;20825;-62
2023/11/13 12:19:16;;;;;;;3.90;2.20;;;11.00;99.90;;;;;;5136949;27;20454;-62
2023/11/13 12:21:45;;;;;;;4.63;2.33;;;11.10;99.90;;;;;;5138038;27;20494;-62
2023/11/13 12:24:19;;;;;;;4.67;2.30;;;11.10;99.90;;;;;;5137361;27;20945;-62
2023/11/13 12:26:49;;;;;;;4.23;2.77;;;11.20;99.90;;;;;;5138772;27;20458;-64
2023/11/13 12:29:17;;;;;;;4.50;2.37;;;11.10;99.90;;;;;;5138308;27;20459;-62
2023/11/13 12:31:46;;;;;;;3.63;2.70;;;11.10;99.90;;;;;;5138354;27;20489;-63
2023/11/13 12:34:15;;;;;;;5.07;3.00;;;11.10;99.90;;;;;;5137938;27;20616;-64
2023/11/13 12:36:47;;;;;;;4.53;2.50;;;11.20;99.90;;;;;;5137322;27;20859;-64
2023/11/13 12:39:19;;;;;;;6.53;4.27;;;11.10;99.90;;;;;;5150546;27;20479;-65
2023/11/13 12:41:47;;;;;;;5.63;2.80;;;11.20;99.90;;;;;;5137076;27;20455;-63
2023/11/13 12:44:17;;;;;;;4.47;2.43;;;11.20;99.90;;;;;;5137490;27;20515;-66
2023/11/13 12:46:48;;;;;;;6.57;2.70;;;11.30;99.90;;;;;;5137867;27;20461;-64
2023/11/13 12:49:17;;;;;;;3.90;2.83;;;11.30;99.90;;;;;;5150100;27;20498;-63
2023/11/13 12:51:47;;;;;;;5.23;2.77;;;11.40;99.90;;;;;;5142442;27;20461;-64
2023/11/13 12:54:17;;;;;;;4.87;2.63;;;11.40;99.90;;;;;;5137177;27;20462;-63
2023/11/13 12:56:44;;;;;;;4.80;2.63;;;11.40;99.90;;;;;;5137076;27;20450;-63
2023/11/13 12:59:16;;;;;;;4.50;3.10;;;11.40;99.90;;;;;;5135495;27;20481;-62
2023/11/13 13:01:47;;;;;;;4.17;2.50;;;11.40;99.90;;;;;;5136707;27;20455;-62